KFAY/FAY METAR and TAF weather

Enter ICAO airport designator
Station Type Date Time Source
KFAY METAR 2019/05/27 08:53 UTC NOAA

KFAY 270853Z AUTO 00000KT 10SM CLR 24/18 A2995 RMK AO2 SLP133 T02390178 55002


Station Type Date Time Source
KFAY Decoded METAR 2019/05/27 08:53 UTC NOAA

FAYETTEVILLE REGIONAL AIRPORT , NC, United States (KFAY) 34-59N 078-53W 55M
May 27, 2019 - 04:53 AM EDT / 2019.05.27 0853 UTC
Wind: Calm:0
Visibility: 10 mile(s):0
Sky conditions: clear
Temperature: 75.0 F (23.9 C)
Dew Point: 64.0 F (17.8 C)
Relative Humidity: 68%
Pressure (altimeter): 29.95 in. Hg (1014 hPa)
Pressure tendency: 0.01 inches (0.2 hPa) lower than three hours ago
ob: KFAY 270853Z AUTO 00000KT 10SM CLR 24/18 A2995 RMK AO2 SLP133 T02390178 55002
cycle: 9

Station Type Date Time Source
KFAY TAF 2019/05/27 06:45 UTC NOAA

TAF KFAY 270540Z 2706/2806 VRB03KT P6SM FEW070 FEW250
FM271530 31010KT P6SM SCT050

Example: see airport list